Airport Name : San Salvador Ilopango Intl

Other Name : Ilopango Intl

ICAO : MSSS

IATA : ILS

FAA :

Latitude : 13.699492

Longitude : -89.119861

Country : El Salvador

Local Date and Time : 21 Jul 2024 02:13

 

TAF (Terminal Aerodrome Forecast)

TAF MSSS 210325Z 2106/2206 35005KT 9999 FEW020 SCT047 TX31/2119Z TN22/2112Z FM211200 34004KT 9999 FEW025 FM211800 18008KT 9999 SCT027 FEW037CB TEMPO 2120/2122 6000 TSRA FM220000 15004KT 9999 FEW020 FEW037CB TEMPO 2203/2206 02012KT 4000 TSRA SCT015 SCT033CB BKN040

 

METAR (METeorological Aerodrome Report)